createdAt,value
2022-08-17T00:01:37.880Z,100.00
2022-08-17T00:04:19.579Z,100.00
2022-08-17T00:06:47.553Z,100.00
2022-08-17T00:09:18.452Z,100.00
2022-08-17T00:12:40.469Z,100.00
2022-08-17T00:14:36.287Z,100.00
2022-08-17T00:17:04.869Z,100.00
2022-08-17T00:19:33.111Z,100.00
2022-08-17T00:22:32.564Z,100.00
2022-08-17T00:24:50.481Z,100.00
2022-08-17T00:27:18.554Z,100.00
2022-08-17T00:29:46.164Z,100.00
2022-08-17T00:33:12.632Z,100.00
2022-08-17T00:35:04.109Z,100.00
2022-08-17T00:37:32.026Z,100.00
2022-08-17T00:39:59.550Z,100.00
2022-08-17T00:42:30.951Z,100.00
2022-08-17T00:44:58.909Z,100.00
2022-08-17T00:47:26.318Z,100.00
2022-08-17T00:49:54.128Z,100.00
2022-08-17T00:52:23.205Z,100.00
2022-08-17T00:54:52.467Z,100.00
2022-08-17T00:57:40.246Z,100.00
2022-08-17T01:00:12.702Z,100.00
2022-08-17T01:02:43.268Z,100.00
2022-08-17T01:05:13.040Z,100.00
2022-08-17T01:07:40.927Z,100.00
2022-08-17T01:10:08.877Z,100.00
2022-08-17T01:12:56.946Z,100.00
2022-08-17T01:15:24.467Z,100.00
2022-08-17T01:17:51.817Z,100.00
2022-08-17T01:20:19.369Z,100.00
2022-08-17T01:22:46.756Z,100.00
2022-08-17T01:25:14.205Z,100.00
2022-08-17T01:27:41.836Z,100.00
2022-08-17T01:30:56.716Z,100.00
2022-08-17T01:32:58.209Z,100.00
2022-08-17T01:35:25.685Z,100.00
2022-08-17T01:37:53.151Z,100.00
2022-08-17T01:40:26.702Z,100.00
2022-08-17T01:42:57.733Z,100.00
2022-08-17T01:45:26.760Z,100.00
2022-08-17T01:47:54.950Z,100.00
2022-08-17T01:50:29.645Z,100.00
2022-08-17T01:52:58.470Z,100.00
2022-08-17T01:55:30.856Z,100.00
2022-08-17T01:57:58.275Z,100.00
2022-08-17T02:00:27.036Z,100.00
2022-08-17T02:03:14.551Z,100.00
2022-08-17T02:05:41.970Z,100.00
2022-08-17T02:08:09.466Z,100.00
2022-08-17T02:10:48.074Z,100.00
2022-08-17T02:13:16.747Z,100.00
2022-08-17T02:15:44.250Z,100.00
2022-08-17T02:18:11.901Z,100.00
2022-08-17T02:20:41.591Z,100.00
2022-08-17T02:23:11.028Z,100.00
2022-08-17T02:25:38.792Z,100.00
2022-08-17T02:28:06.303Z,100.00
2022-08-17T02:30:59.722Z,100.00
2022-08-17T02:33:21.764Z,100.00
2022-08-17T02:35:49.474Z,100.00
2022-08-17T02:38:17.583Z,100.00
2022-08-17T02:40:45.132Z,100.00
2022-08-17T02:43:13.882Z,100.00
2022-08-17T02:45:41.215Z,100.00
2022-08-17T02:48:08.658Z,100.00
2022-08-17T02:50:36.554Z,100.00
2022-08-17T02:53:04.794Z,100.00
2022-08-17T02:55:36.319Z,100.00
2022-08-17T02:58:04.299Z,100.00
2022-08-17T03:00:34.274Z,100.00
2022-08-17T03:03:01.873Z,100.00
2022-08-17T03:05:29.928Z,100.00
2022-08-17T03:07:58.146Z,100.00
2022-08-17T03:10:25.786Z,100.00
2022-08-17T03:12:53.585Z,100.00
2022-08-17T03:15:22.112Z,100.00
2022-08-17T03:17:49.658Z,100.00
2022-08-17T03:20:17.390Z,100.00
2022-08-17T03:22:48.057Z,100.00
2022-08-17T03:25:25.340Z,100.00
2022-08-17T03:27:53.021Z,100.00
2022-08-17T03:30:22.546Z,100.00
2022-08-17T03:32:50.808Z,100.00
2022-08-17T03:35:18.880Z,100.00
2022-08-17T03:37:46.466Z,100.00
2022-08-17T03:40:14.047Z,100.00
2022-08-17T03:42:41.501Z,100.00
2022-08-17T03:45:10.574Z,100.00
2022-08-17T03:47:57.291Z,100.00
2022-08-17T03:50:43.577Z,100.00
2022-08-17T03:53:30.811Z,100.00
2022-08-17T03:56:20.094Z,100.00
2022-08-17T03:58:47.555Z,100.00
2022-08-17T04:01:15.012Z,100.00
2022-08-17T04:03:42.390Z,100.00
2022-08-17T04:06:09.819Z,97.22
2022-08-17T04:08:37.359Z,94.66
2022-08-17T04:11:05.187Z,93.69
2022-08-17T04:13:33.261Z,88.44
2022-08-17T04:16:00.758Z,86.29
2022-08-17T04:18:28.114Z,83.67
2022-08-17T04:20:55.587Z,82.54
2022-08-17T04:23:28.441Z,79.09
2022-08-17T04:25:55.935Z,81.04
2022-08-17T04:28:23.467Z,79.69
2022-08-17T04:30:51.105Z,79.14
2022-08-17T04:33:20.147Z,80.09
2022-08-17T04:35:48.416Z,82.09
2022-08-17T04:38:17.181Z,82.07
2022-08-17T04:41:03.244Z,80.70
2022-08-17T04:43:31.290Z,81.56
2022-08-17T04:45:59.767Z,79.94
2022-08-17T04:48:35.615Z,80.94
2022-08-17T04:51:14.381Z,82.81
2022-08-17T04:53:42.390Z,82.71
2022-08-17T04:56:15.908Z,79.61
2022-08-17T04:58:44.513Z,85.99
2022-08-17T05:01:12.009Z,91.27
2022-08-17T05:03:39.541Z,96.34
2022-08-17T05:06:07.050Z,100.00
2022-08-17T05:08:34.559Z,100.00
2022-08-17T05:11:02.069Z,100.00
2022-08-17T17:37:40.222Z,56.18
2022-08-17T17:40:12.664Z,57.02
2022-08-17T17:42:40.728Z,57.29
2022-08-17T17:45:20.011Z,57.70
2022-08-17T17:47:47.579Z,60.88
2022-08-17T17:50:16.140Z,62.48
2022-08-17T17:53:03.492Z,62.00
2022-08-17T17:55:38.456Z,60.16
2022-08-17T17:58:24.680Z,62.12
2022-08-17T18:00:52.415Z,62.02
2022-08-17T18:03:29.187Z,61.71
2022-08-17T18:06:00.571Z,62.72
2022-08-17T18:08:34.735Z,61.98
2022-08-17T18:11:08.930Z,61.70
2022-08-17T18:13:43.820Z,61.92
2022-08-17T18:16:12.849Z,61.87
2022-08-17T18:18:40.922Z,61.53
2022-08-17T18:21:15.756Z,61.77
2022-08-17T18:23:47.404Z,61.19
2022-08-17T18:26:22.433Z,60.82
2022-08-17T18:28:49.997Z,59.42
2022-08-17T18:31:21.121Z,58.68
2022-08-17T18:33:49.581Z,62.23
2022-08-17T18:36:28.044Z,61.27
2022-08-17T18:39:14.342Z,63.18
2022-08-17T18:41:42.655Z,63.20
2022-08-17T18:44:29.840Z,64.70
2022-08-17T18:47:06.569Z,65.00
2022-08-17T18:49:34.244Z,65.37
2022-08-17T18:52:07.509Z,67.23
2022-08-17T18:54:36.383Z,74.54
2022-08-17T18:57:05.101Z,79.03
2022-08-17T18:59:42.420Z,83.22
2022-08-17T19:02:27.303Z,83.62
2022-08-17T19:05:02.637Z,86.56
2022-08-17T19:07:40.731Z,88.72
2022-08-17T19:10:23.855Z,87.55
2022-08-17T19:13:12.361Z,84.82
2022-08-17T19:16:12.070Z,78.01
2022-08-17T19:18:47.650Z,74.44
2022-08-17T19:21:17.068Z,70.68
2022-08-17T19:23:53.698Z,67.42
2022-08-17T19:26:54.600Z,66.53
2022-08-17T19:29:12.964Z,63.36
2022-08-17T19:31:41.667Z,67.15
2022-08-17T19:34:09.295Z,67.39
2022-08-17T19:37:01.105Z,66.62
2022-08-17T19:39:38.619Z,63.03
2022-08-17T19:42:11.906Z,61.78
2022-08-17T19:44:58.003Z,61.75
2022-08-17T19:47:55.370Z,61.94
2022-08-17T19:50:39.198Z,61.87
2022-08-17T19:53:36.689Z,63.30
2022-08-17T19:56:22.376Z,63.07
2022-08-17T19:58:57.176Z,68.62
2022-08-17T20:01:48.122Z,71.92
2022-08-17T20:04:31.807Z,77.19
2022-08-17T20:07:02.298Z,81.30
2022-08-17T20:09:33.700Z,83.57
2022-08-17T20:12:11.611Z,83.89
2022-08-17T20:14:53.888Z,76.71
2022-08-17T20:17:28.370Z,77.74
2022-08-17T20:20:19.701Z,84.43
2022-08-17T20:22:53.176Z,86.42
2022-08-17T20:25:30.297Z,88.47
2022-08-17T20:28:05.751Z,90.79
2022-08-17T20:30:37.697Z,94.98
2022-08-17T20:33:06.085Z,94.43
2022-08-17T20:35:34.320Z,96.11
2022-08-17T20:38:10.616Z,97.44
2022-08-17T20:40:39.458Z,98.32
2022-08-17T20:43:33.287Z,97.61
2022-08-17T20:46:06.578Z,96.70
2022-08-17T20:48:38.451Z,100.00
2022-08-17T20:51:15.857Z,100.00
2022-08-17T20:53:49.530Z,100.00
2022-08-17T20:56:36.361Z,100.00
2022-08-17T20:59:03.880Z,100.00
2022-08-17T21:01:36.077Z,100.00
2022-08-17T21:04:05.864Z,100.00
2022-08-17T21:06:33.324Z,100.00
2022-08-17T21:09:13.153Z,100.00
2022-08-17T21:12:03.351Z,100.00
2022-08-17T21:14:49.694Z,100.00
2022-08-17T21:17:35.920Z,100.00
2022-08-17T21:20:15.786Z,98.62
2022-08-17T21:22:46.129Z,95.41
2022-08-17T21:25:22.708Z,94.51
2022-08-17T21:27:56.429Z,95.95
2022-08-17T21:30:42.601Z,97.55
2022-08-17T21:33:12.252Z,96.93
2022-08-17T21:35:47.476Z,97.68
2022-08-17T21:38:15.315Z,99.98
2022-08-17T21:40:47.067Z,100.00
2022-08-17T21:43:14.638Z,99.06
2022-08-17T21:45:43.100Z,99.41
2022-08-17T21:48:19.735Z,100.00
2022-08-17T21:51:05.894Z,100.00
2022-08-17T21:53:36.713Z,100.00
2022-08-17T21:56:04.624Z,100.00
2022-08-17T21:58:32.929Z,100.00
2022-08-17T22:01:19.092Z,100.00
2022-08-17T22:04:00.242Z,100.00
2022-08-17T22:06:35.219Z,100.00
2022-08-17T22:09:07.413Z,100.00
2022-08-17T22:11:54.268Z,100.00
2022-08-17T22:14:52.629Z,100.00
2022-08-17T22:17:27.064Z,100.00
2022-08-17T22:20:01.579Z,100.00
2022-08-17T22:22:30.996Z,100.00
2022-08-17T22:25:06.749Z,100.00
2022-08-17T22:27:45.874Z,100.00
2022-08-17T22:30:25.077Z,100.00
2022-08-17T22:32:52.782Z,100.00
2022-08-17T22:35:29.512Z,100.00
2022-08-17T22:37:57.079Z,100.00
2022-08-17T22:40:31.203Z,100.00
2022-08-17T22:42:59.009Z,100.00
2022-08-17T22:45:26.604Z,100.00
2022-08-17T22:47:55.760Z,100.00
2022-08-17T22:50:23.953Z,100.00
2022-08-17T22:53:17.646Z,100.00
2022-08-17T22:56:21.876Z,100.00
2022-08-17T22:59:10.984Z,100.00
2022-08-17T23:01:39.206Z,100.00
2022-08-17T23:04:07.443Z,100.00
2022-08-17T23:06:35.841Z,100.00
2022-08-17T23:09:04.080Z,100.00
2022-08-17T23:11:49.915Z,100.00
2022-08-17T23:14:19.291Z,100.00
2022-08-17T23:16:52.924Z,100.00
2022-08-17T23:19:20.796Z,100.00
2022-08-17T23:21:49.342Z,100.00
2022-08-17T23:24:21.271Z,100.00
2022-08-17T23:26:48.956Z,100.00
2022-08-17T23:29:16.314Z,100.00
2022-08-17T23:31:43.691Z,100.00
2022-08-17T23:34:12.072Z,100.00
2022-08-17T23:36:39.488Z,100.00
2022-08-17T23:39:06.978Z,100.00
2022-08-17T23:41:35.755Z,100.00
2022-08-17T23:46:49.524Z,100.00
2022-08-17T23:49:17.178Z,100.00
2022-08-17T23:51:45.536Z,100.00
2022-08-17T23:54:33.776Z,100.00
2022-08-17T23:57:04.960Z,100.00
2022-08-17T23:59:34.005Z,100.00
